createdAt,value
2019-02-10T00:04:00.827Z,3.53
2019-02-10T00:08:45.384Z,6.77
2019-02-10T00:13:39.623Z,7.30
2019-02-10T00:18:24.269Z,4.33
2019-02-10T00:23:08.738Z,5.47
2019-02-10T00:27:53.406Z,3.10
2019-02-10T00:32:38.015Z,4.40
2019-02-10T00:37:22.654Z,5.70
2019-02-10T00:42:07.187Z,3.33
2019-02-10T00:46:51.739Z,3.27
2019-02-10T00:51:36.394Z,3.07
2019-02-10T00:56:21.018Z,5.70
2019-02-10T01:01:05.530Z,5.13
2019-02-10T01:05:50.155Z,7.00
2019-02-10T01:10:34.811Z,4.13
2019-02-10T01:15:19.376Z,5.57
2019-02-10T01:20:03.961Z,4.33
2019-02-10T01:24:48.508Z,3.20
2019-02-10T01:29:32.976Z,10.23
2019-02-10T01:34:17.562Z,3.30
2019-02-10T01:39:02.103Z,8.53
2019-02-10T01:43:46.631Z,3.97
2019-02-10T01:48:31.126Z,4.37
2019-02-10T01:53:15.685Z,3.43
2019-02-10T01:58:00.221Z,4.07
2019-02-10T02:02:44.833Z,3.40
2019-02-10T02:07:29.384Z,5.70
2019-02-10T02:12:13.967Z,3.03
2019-02-10T02:16:58.477Z,4.10
2019-02-10T02:21:42.995Z,5.43
2019-02-10T02:26:27.590Z,5.63
2019-02-10T02:31:12.289Z,6.53
2019-02-10T02:35:56.975Z,8.50
2019-02-10T02:40:41.738Z,5.07
2019-02-10T02:45:26.319Z,7.23
2019-02-10T02:50:11.384Z,5.23
2019-02-10T02:54:55.999Z,3.10
2019-02-10T02:59:40.699Z,4.50
2019-02-10T03:04:25.328Z,3.77
2019-02-10T03:09:09.999Z,9.17
2019-02-10T03:13:54.545Z,6.80
2019-02-10T03:18:39.108Z,9.77
2019-02-10T03:23:23.619Z,10.10
2019-02-10T03:28:08.041Z,7.30
2019-02-10T03:32:52.580Z,5.87
2019-02-10T03:37:37.083Z,4.10
2019-02-10T03:42:21.881Z,5.23
2019-02-10T03:47:06.600Z,3.27
2019-02-10T03:51:51.285Z,6.77
2019-02-10T03:56:35.812Z,7.47
2019-02-10T04:01:20.309Z,7.97
2019-02-10T04:06:04.923Z,7.33
2019-02-10T04:10:49.515Z,7.23
2019-02-10T04:15:34.078Z,4.80
2019-02-10T04:20:18.553Z,4.33
2019-02-10T04:25:03.168Z,8.03
2019-02-10T04:29:47.806Z,6.57
2019-02-10T04:34:32.386Z,4.20
2019-02-10T04:39:16.971Z,7.63
2019-02-10T04:44:01.546Z,8.77
2019-02-10T04:48:46.070Z,5.17
2019-02-10T04:53:30.611Z,6.93
2019-02-10T04:58:15.178Z,5.67
2019-02-10T05:02:59.808Z,3.40
2019-02-10T05:07:44.768Z,6.83
2019-02-10T05:12:29.345Z,6.50
2019-02-10T05:17:14.005Z,5.67
2019-02-10T05:21:58.724Z,10.13
2019-02-10T05:26:43.288Z,9.93
2019-02-10T05:31:27.754Z,8.70
2019-02-10T05:36:12.309Z,7.80
2019-02-10T05:40:56.776Z,7.63
2019-02-10T05:45:41.349Z,7.63
2019-02-10T05:50:26.010Z,6.13
2019-02-10T05:55:10.656Z,7.27
2019-02-10T05:59:55.264Z,6.13
2019-02-10T06:04:42.066Z,6.40
2019-02-10T06:09:26.703Z,8.87
2019-02-10T06:14:11.212Z,10.40
2019-02-10T06:18:55.708Z,8.53
2019-02-10T06:23:40.231Z,5.70
2019-02-10T06:28:24.804Z,7.57
2019-02-10T06:33:09.398Z,5.13
2019-02-10T06:37:54.079Z,6.07
2019-02-10T06:42:38.729Z,8.63
2019-02-10T06:47:23.298Z,6.87
2019-02-10T06:52:07.880Z,6.90
2019-02-10T06:56:52.468Z,7.83
2019-02-10T07:01:41.660Z,6.50
2019-02-10T07:06:26.366Z,3.90
2019-02-10T07:11:10.870Z,4.73
2019-02-10T07:16:32.822Z,7.47
2019-02-10T07:21:17.490Z,5.80
2019-02-10T07:26:09.531Z,6.30
2019-02-10T07:30:54.220Z,4.50
2019-02-10T07:35:59.749Z,6.53
2019-02-10T07:41:14.420Z,4.90
2019-02-10T07:46:32.624Z,5.37
2019-02-10T07:52:07.271Z,6.80
2019-02-10T07:57:47.980Z,6.03
2019-02-10T08:03:13.305Z,4.73
2019-02-10T08:08:54.078Z,7.47
2019-02-10T08:14:22.404Z,7.07
2019-02-10T08:19:25.554Z,9.50
2019-02-10T08:24:36.979Z,6.57
2019-02-10T08:30:09.066Z,6.00
2019-02-10T08:35:28.604Z,7.30
2019-02-10T08:40:37.473Z,2.73
2019-02-10T08:45:38.494Z,3.57
2019-02-10T08:50:36.549Z,4.53
2019-02-10T08:55:21.115Z,3.67
2019-02-10T09:00:06.127Z,2.37
2019-02-10T09:04:50.629Z,3.80
2019-02-10T09:09:35.376Z,2.30
2019-02-10T09:14:19.930Z,2.97
2019-02-10T09:19:04.505Z,3.67
2019-02-10T09:23:49.085Z,4.67
2019-02-10T09:28:33.693Z,4.70
2019-02-10T09:33:18.161Z,4.87
2019-02-10T09:38:02.863Z,3.50
2019-02-10T09:42:47.754Z,3.87
2019-02-10T09:47:32.421Z,1.73
2019-02-10T09:52:17.010Z,3.53
2019-02-10T09:57:01.779Z,3.43
2019-02-10T10:01:46.287Z,3.77
2019-02-10T10:06:31.086Z,3.10
2019-02-10T10:11:15.691Z,3.87
2019-02-10T10:16:00.303Z,3.67
2019-02-10T10:20:44.936Z,2.40
2019-02-10T10:25:30.456Z,4.57
2019-02-10T10:30:16.717Z,3.43
2019-02-10T10:35:01.394Z,2.93
2019-02-10T10:39:46.150Z,4.57
2019-02-10T10:44:30.923Z,1.70
2019-02-10T10:49:15.746Z,2.47
2019-02-10T10:54:00.474Z,3.73
2019-02-10T10:58:45.142Z,4.63
2019-02-10T11:03:29.761Z,2.83
2019-02-10T11:08:14.556Z,5.30
2019-02-10T11:12:59.361Z,2.40
2019-02-10T11:17:44.007Z,3.90
2019-02-10T11:22:28.660Z,2.80
2019-02-10T11:27:13.390Z,3.83
2019-02-10T11:31:57.906Z,3.60
2019-02-10T11:36:42.557Z,3.50
2019-02-10T11:41:27.482Z,3.83
2019-02-10T11:46:12.227Z,4.57
2019-02-10T11:50:57.101Z,1.40
2019-02-10T11:55:41.954Z,2.07
2019-02-10T12:00:26.684Z,1.93
2019-02-10T12:05:12.228Z,4.20
2019-02-10T12:09:56.903Z,3.67
2019-02-10T12:14:41.554Z,2.10
2019-02-10T12:19:26.139Z,2.37
2019-02-10T12:24:11.084Z,2.73
2019-02-10T12:28:55.767Z,1.83
2019-02-10T12:33:40.558Z,2.43
2019-02-10T12:38:25.334Z,3.37
2019-02-10T12:43:09.898Z,3.13
2019-02-10T12:47:54.589Z,2.33
2019-02-10T12:52:39.323Z,2.20
2019-02-10T12:57:24.012Z,4.00
2019-02-10T13:02:08.641Z,2.23
2019-02-10T13:06:53.442Z,2.20
2019-02-10T13:11:38.337Z,3.70
2019-02-10T13:16:23.297Z,1.80
2019-02-10T13:21:08.004Z,2.83
2019-02-10T13:25:52.664Z,3.07
2019-02-10T13:30:37.551Z,1.87
2019-02-10T13:35:22.398Z,2.20
2019-02-10T13:40:16.428Z,2.80
2019-02-10T13:44:56.418Z,11.10
2019-02-10T13:49:40.997Z,7.53
2019-02-10T13:54:25.740Z,3.40
2019-02-10T13:59:10.251Z,2.07
2019-02-10T14:03:54.983Z,2.00
2019-02-10T14:08:39.786Z,3.43
2019-02-10T14:13:24.567Z,3.27
2019-02-10T14:18:09.360Z,1.40
2019-02-10T14:22:53.987Z,2.50
2019-02-10T14:27:39.012Z,4.43
2019-02-10T14:32:23.638Z,3.80
2019-02-10T14:37:08.658Z,2.67
2019-02-10T14:41:53.345Z,2.00
2019-02-10T14:46:38.133Z,1.73
2019-02-10T14:51:22.898Z,1.83
2019-02-10T14:56:07.637Z,1.50
2019-02-10T15:00:52.191Z,4.57
2019-02-10T15:05:36.784Z,2.00
2019-02-10T15:10:21.538Z,2.97
2019-02-10T15:15:07.566Z,3.23
2019-02-10T15:19:52.225Z,1.70
2019-02-10T15:24:37.122Z,2.00
2019-02-10T15:29:21.915Z,3.27
2019-02-10T15:34:06.471Z,1.00
2019-02-10T15:38:51.152Z,1.50
2019-02-10T15:43:35.962Z,1.53
2019-02-10T15:48:20.418Z,1.17
2019-02-10T15:53:04.946Z,5.53
2019-02-10T15:57:49.676Z,1.40
2019-02-10T16:02:34.337Z,2.30
2019-02-10T16:07:18.892Z,1.30
2019-02-10T16:12:03.632Z,1.53
2019-02-10T16:16:48.488Z,1.10
2019-02-10T16:21:33.071Z,1.30
2019-02-10T16:26:17.890Z,3.02
2019-02-10T16:31:02.635Z,2.87
2019-02-10T16:35:47.351Z,1.60
2019-02-10T16:40:31.996Z,1.50
2019-02-10T16:45:16.551Z,1.17
2019-02-10T16:50:01.189Z,2.20
2019-02-10T16:54:45.910Z,0.87
2019-02-10T16:59:30.408Z,1.03
2019-02-10T17:04:15.114Z,1.47
2019-02-10T17:08:59.634Z,1.10
2019-02-10T17:13:44.387Z,1.40
2019-02-10T17:18:35.870Z,1.30
2019-02-10T17:23:20.496Z,1.13
2019-02-10T17:28:05.268Z,1.47
2019-02-10T17:32:49.923Z,1.83
2019-02-10T17:37:34.475Z,1.10
2019-02-10T17:42:19.245Z,1.87
2019-02-10T17:47:03.911Z,1.62
2019-02-10T17:51:48.452Z,1.37
2019-02-10T17:56:33.167Z,0.97
2019-02-10T18:01:17.911Z,1.30
2019-02-10T18:06:02.486Z,0.90
2019-02-10T18:10:47.227Z,3.50
2019-02-10T18:15:53.112Z,0.70
2019-02-10T18:20:48.583Z,1.03
2019-02-10T18:25:43.448Z,1.03
2019-02-10T18:30:45.551Z,1.40
2019-02-10T18:35:49.089Z,0.93
2019-02-10T18:40:57.162Z,1.10
2019-02-10T18:46:18.214Z,0.90
2019-02-10T18:51:22.569Z,1.13
2019-02-10T18:56:19.221Z,0.83
2019-02-10T19:01:26.110Z,1.20
2019-02-10T19:06:26.899Z,0.90
2019-02-10T19:11:21.876Z,1.00
2019-02-10T19:16:18.927Z,0.80
2019-02-10T19:21:10.725Z,1.53
2019-02-10T19:26:12.939Z,0.90
2019-02-10T19:31:31.531Z,1.07
2019-02-10T19:36:38.279Z,2.43
2019-02-10T19:41:36.871Z,4.67
2019-02-10T19:46:39.401Z,1.20
2019-02-10T19:51:49.271Z,1.17
2019-02-10T19:57:11.600Z,0.87
2019-02-10T20:02:13.967Z,1.40
2019-02-10T20:07:05.025Z,1.03
2019-02-10T20:12:20.931Z,1.50
2019-02-10T20:17:21.882Z,0.70
2019-02-10T20:22:23.053Z,0.60
2019-02-10T20:27:25.361Z,0.57
2019-02-10T20:32:27.744Z,0.83
2019-02-10T20:37:18.125Z,0.83
2019-02-10T20:42:16.413Z,1.13
2019-02-10T20:47:37.856Z,1.87
2019-02-10T20:52:34.391Z,0.80
2019-02-10T20:57:38.113Z,0.70
2019-02-10T21:02:38.143Z,0.60
2019-02-10T21:07:41.659Z,0.50
2019-02-10T21:12:34.991Z,0.57
2019-02-10T21:17:47.589Z,0.60
2019-02-10T21:22:51.131Z,0.63
2019-02-10T21:27:43.504Z,0.70
2019-02-10T21:32:48.191Z,1.00
2019-02-10T21:37:40.902Z,0.80
2019-02-10T21:42:43.118Z,0.60
2019-02-10T21:47:33.475Z,0.50
2019-02-10T21:52:18.197Z,0.40
2019-02-10T21:57:02.867Z,0.60
2019-02-10T22:01:47.829Z,0.37
2019-02-10T22:06:32.584Z,0.40
2019-02-10T22:11:17.319Z,0.70
2019-02-10T22:16:01.947Z,0.40
2019-02-10T22:20:46.581Z,0.50
2019-02-10T22:25:31.177Z,0.73
2019-02-10T22:30:16.393Z,0.53
2019-02-10T22:35:00.955Z,0.50
2019-02-10T22:39:45.640Z,0.40
2019-02-10T22:44:30.349Z,0.50
2019-02-10T22:49:14.909Z,0.50
2019-02-10T22:53:59.939Z,0.43
2019-02-10T22:58:44.804Z,0.40
2019-02-10T23:03:29.595Z,0.37
2019-02-10T23:08:14.185Z,0.37
2019-02-10T23:12:58.711Z,0.50
2019-02-10T23:17:43.433Z,0.50
2019-02-10T23:22:28.093Z,0.50
2019-02-10T23:27:12.686Z,0.40
2019-02-10T23:31:57.352Z,1.43
2019-02-10T23:36:42.080Z,0.50
2019-02-10T23:41:26.787Z,0.40
2019-02-10T23:46:11.391Z,0.53
2019-02-10T23:50:56.234Z,0.50
2019-02-10T23:55:40.836Z,0.40
